createdAt,value
2018-08-09T10:01:36.143Z,2048.00
2018-08-09T10:02:36.067Z,2024.00
2018-08-09T10:03:36.038Z,2020.00
2018-08-09T10:04:36.007Z,2016.00
2018-08-09T10:05:35.965Z,2008.00
2018-08-09T10:06:35.939Z,2004.00
2018-08-09T10:07:35.893Z,2000.00
2018-08-09T10:08:35.837Z,1996.00
2018-08-09T10:09:35.784Z,2000.00
2018-08-09T10:10:35.738Z,2004.00
2018-08-09T10:11:35.693Z,2008.00
2018-08-09T10:12:35.654Z,2004.00
2018-08-09T10:13:35.617Z,1988.00
2018-08-09T10:14:35.552Z,2036.00
2018-08-09T10:15:35.487Z,2056.00
2018-08-09T10:16:35.435Z,2076.00
2018-08-09T10:17:35.382Z,2080.00
2018-08-09T10:18:35.328Z,2104.00
2018-08-09T10:19:35.293Z,2116.00
2018-08-09T10:20:35.235Z,2128.00
2018-08-09T10:21:35.197Z,2128.00
2018-08-09T10:22:35.142Z,2124.00
2018-08-09T10:23:35.104Z,2120.00
2018-08-09T10:24:35.055Z,2116.00
2018-08-09T10:25:35.027Z,2104.00
2018-08-09T10:26:34.971Z,2076.00
2018-08-09T10:27:34.923Z,2044.00
2018-08-09T10:28:34.875Z,2048.00
2018-08-09T10:29:34.833Z,2032.00
2018-08-09T10:30:34.776Z,2020.00
2018-08-09T10:31:34.773Z,2008.00
2018-08-09T10:32:34.679Z,2004.00
2018-08-09T10:33:34.622Z,1976.00
2018-08-09T10:34:34.585Z,1964.00
2018-08-09T10:35:34.591Z,1956.00
2018-08-09T10:36:34.495Z,1952.00
2018-08-09T10:37:34.495Z,1944.00
2018-08-09T10:38:34.401Z,1952.00
2018-08-09T10:39:34.345Z,1956.00
2018-08-09T10:40:34.298Z,1960.00
2018-08-09T10:41:34.258Z,1960.00
2018-08-09T10:42:34.213Z,1960.00
2018-08-09T10:43:34.168Z,1960.00
2018-08-09T10:44:34.104Z,1964.00
2018-08-09T10:45:34.047Z,1968.00
2018-08-09T10:46:33.995Z,1928.00
2018-08-09T10:47:33.936Z,1964.00
2018-08-09T10:48:33.880Z,1972.00
2018-08-09T10:49:33.846Z,1968.00
2018-08-09T10:50:33.776Z,1868.00
2018-08-09T10:51:33.732Z,2000.00
2018-08-09T10:52:33.672Z,2044.00
2018-08-09T10:53:33.625Z,2080.00
2018-08-09T10:54:33.579Z,2112.00
2018-08-09T10:55:33.570Z,2144.00
2018-08-09T10:56:33.472Z,2072.00
2018-08-09T10:57:33.424Z,2148.00
2018-08-09T10:58:33.356Z,80.00
2018-08-09T10:59:53.241Z,6664.00
2018-08-09T11:00:53.231Z,6668.00
2018-08-09T11:01:53.177Z,6584.00
2018-08-09T11:02:53.143Z,6564.00
2018-08-09T11:03:53.110Z,6524.00
2018-08-09T11:04:53.077Z,6520.00
2018-08-09T11:05:53.040Z,6424.00
2018-08-09T11:06:53.018Z,6444.00
2018-08-09T11:07:52.971Z,6400.00
2018-08-09T11:08:52.917Z,6424.00
2018-08-09T11:09:52.910Z,6412.00
2018-08-09T11:10:52.843Z,6420.00
2018-08-09T11:11:52.773Z,6424.00
2018-08-09T11:12:52.741Z,6404.00
2018-08-09T11:13:52.669Z,6420.00
2018-08-09T11:14:52.609Z,6404.00
2018-08-09T11:15:52.572Z,6428.00
2018-08-09T11:16:52.532Z,6440.00
2018-08-09T11:17:52.448Z,6464.00
2018-08-09T11:18:52.398Z,6440.00
2018-08-09T11:19:52.338Z,6464.00
2018-08-09T11:20:52.281Z,6476.00
2018-08-09T11:21:52.237Z,6488.00
2018-08-09T11:22:52.192Z,6528.00
2018-08-09T11:23:52.114Z,6536.00
2018-08-09T11:24:52.091Z,6548.00
2018-08-09T11:25:52.015Z,6512.00
2018-08-09T11:26:51.961Z,6496.00
2018-08-09T11:27:51.939Z,6504.00
2018-08-09T11:28:51.889Z,6492.00
2018-08-09T11:29:51.835Z,6512.00
2018-08-09T11:30:51.789Z,6660.00
2018-08-09T11:31:51.746Z,6724.00
2018-08-09T11:32:51.703Z,6516.00
2018-08-09T11:33:51.666Z,6516.00
2018-08-09T11:34:51.591Z,6620.00
2018-08-09T11:35:51.539Z,6764.00
2018-08-09T11:36:51.507Z,6840.00
2018-08-09T11:37:51.459Z,6856.00
2018-08-09T11:38:51.398Z,6888.00
2018-08-09T11:39:51.447Z,6820.00
2018-08-09T11:40:51.286Z,6788.00
2018-08-09T11:41:51.236Z,6772.00
2018-08-09T11:42:51.187Z,6768.00
2018-08-09T11:43:51.126Z,6768.00
2018-08-09T11:44:51.093Z,6812.00
2018-08-09T11:45:51.022Z,6820.00
2018-08-09T11:46:50.943Z,6836.00
2018-08-09T11:47:50.898Z,6892.00
2018-08-09T11:48:50.833Z,6908.00
2018-08-09T11:49:50.797Z,6968.00
2018-08-09T11:50:50.722Z,6984.00
2018-08-09T11:51:50.703Z,7000.00
2018-08-09T11:52:50.606Z,7008.00
2018-08-09T11:53:50.540Z,7052.00
2018-08-09T11:54:50.486Z,7088.00
2018-08-09T11:55:50.442Z,7116.00
2018-08-09T11:56:50.373Z,7132.00
2018-08-09T11:57:50.319Z,7176.00
2018-08-09T11:58:50.239Z,7200.00
2018-08-09T11:59:50.176Z,7256.00
2018-08-09T12:00:50.131Z,7296.00
2018-08-09T12:01:50.101Z,7312.00
2018-08-09T12:02:49.988Z,7368.00
2018-08-09T12:03:49.942Z,7436.00
2018-08-09T12:04:49.864Z,7452.00
2018-08-09T12:05:49.800Z,7540.00
2018-08-09T12:06:49.756Z,7572.00
2018-08-09T12:07:49.678Z,7604.00
2018-08-09T12:08:49.609Z,7664.00
2018-08-09T12:09:49.539Z,7684.00
2018-08-09T12:10:49.472Z,7824.00
2018-08-09T12:11:49.441Z,7872.00
2018-08-09T12:12:49.364Z,7896.00
2018-08-09T12:13:49.321Z,7916.00
2018-08-09T12:14:49.224Z,7996.00
2018-08-09T12:15:49.161Z,8048.00
2018-08-09T12:16:49.075Z,8104.00
2018-08-09T12:17:49.030Z,8136.00
2018-08-09T12:18:48.930Z,8204.00
2018-08-09T12:19:48.856Z,8276.00
2018-08-09T12:20:48.894Z,8288.00
2018-08-09T12:21:48.755Z,8372.00
2018-08-09T12:22:48.664Z,8412.00
2018-08-09T12:23:48.586Z,8492.00
2018-08-09T12:24:48.532Z,8568.00
2018-08-09T12:25:48.475Z,8636.00
2018-08-09T12:26:39.947Z,8716.00
2018-08-09T12:27:39.946Z,8800.00
2018-08-09T12:28:39.916Z,8880.00
2018-08-09T12:29:39.970Z,8912.00
2018-08-09T12:30:39.897Z,8932.00
2018-08-09T12:31:39.892Z,8972.00
2018-08-09T12:32:39.886Z,9032.00
2018-08-09T12:33:39.892Z,9220.00
2018-08-09T12:34:39.862Z,9324.00
2018-08-09T12:35:39.847Z,9352.00
2018-08-09T12:36:39.902Z,9412.00
2018-08-09T12:37:39.822Z,9476.00
2018-08-09T12:38:39.857Z,9400.00
2018-08-09T12:39:39.822Z,9536.00
2018-08-09T12:40:39.796Z,9484.00
2018-08-09T12:41:46.842Z,10616.00
2018-08-09T12:42:39.770Z,10660.00
2018-08-09T12:43:39.762Z,10772.00
2018-08-09T12:44:39.750Z,10760.00
2018-08-09T12:45:39.901Z,10824.00
2018-08-09T12:46:39.753Z,10860.00
2018-08-09T12:47:39.720Z,10968.00
2018-08-09T12:48:39.708Z,11068.00
2018-08-09T12:49:39.698Z,11064.00
2018-08-09T12:50:39.698Z,11156.00
2018-08-09T12:51:39.718Z,11232.00
2018-08-09T12:52:39.667Z,11192.00
2018-08-09T12:53:39.657Z,11372.00
2018-08-09T12:54:39.641Z,11320.00
2018-08-09T12:55:39.631Z,11628.00
2018-08-09T12:56:39.623Z,11676.00
2018-08-09T12:57:39.631Z,11796.00
2018-08-09T12:58:39.611Z,11924.00
2018-08-09T12:59:39.599Z,12012.00
2018-08-09T13:00:39.582Z,12000.00
2018-08-09T13:01:39.576Z,11968.00
2018-08-09T13:02:39.578Z,12040.00
2018-08-09T13:03:39.571Z,12032.00
2018-08-09T13:04:39.541Z,12176.00
2018-08-09T13:05:39.558Z,12200.00
2018-08-09T13:06:39.528Z,12352.00
2018-08-09T13:07:39.520Z,12360.00
2018-08-09T13:08:39.497Z,12472.00
2018-08-09T13:09:39.504Z,12536.00
2018-08-09T13:10:39.493Z,12608.00
2018-08-09T13:11:39.463Z,12764.00
2018-08-09T13:12:39.454Z,12860.00
2018-08-09T13:13:39.451Z,12832.00
2018-08-09T13:14:39.440Z,12828.00
2018-08-09T13:15:39.439Z,12828.00
2018-08-09T13:16:39.413Z,12904.00
2018-08-09T13:17:39.404Z,12936.00
2018-08-09T13:18:39.404Z,12928.00
2018-08-09T13:19:39.393Z,13008.00
2018-08-09T13:20:39.388Z,13164.00
2018-08-09T13:21:39.389Z,13224.00
2018-08-09T13:22:39.365Z,13300.00
2018-08-09T13:23:39.355Z,13336.00
2018-08-09T13:24:39.347Z,13464.00
2018-08-09T13:25:39.337Z,13612.00
2018-08-09T13:26:39.327Z,13712.00
2018-08-09T13:27:39.334Z,13744.00
2018-08-09T13:28:39.327Z,13872.00
2018-08-09T13:29:39.298Z,13984.00
2018-08-09T13:30:39.297Z,13912.00
2018-08-09T13:31:39.281Z,14236.00
2018-08-09T13:32:39.272Z,14520.00
2018-08-09T13:33:39.309Z,14612.00
2018-08-09T13:34:39.262Z,14464.00
2018-08-09T13:35:39.247Z,14784.00
2018-08-09T13:36:39.240Z,15064.00
2018-08-09T13:37:39.233Z,15136.00
2018-08-09T13:38:39.232Z,15164.00
2018-08-09T13:39:39.236Z,15404.00
2018-08-09T13:40:39.204Z,15700.00
2018-08-09T13:41:39.206Z,16008.00
2018-08-09T13:42:39.197Z,16260.00
2018-08-09T13:43:39.199Z,16448.00
2018-08-09T13:44:39.268Z,16800.00
2018-08-09T13:45:39.712Z,17248.00
2018-08-09T13:46:39.267Z,17440.00
2018-08-09T13:47:39.238Z,17952.00
2018-08-09T13:48:39.714Z,18112.00
2018-08-09T13:49:39.703Z,18656.00
2018-08-09T13:50:39.132Z,19072.00
2018-08-09T13:51:39.109Z,19488.00
2018-08-09T13:52:39.161Z,20160.00
2018-08-09T13:53:39.107Z,20768.00
2018-08-09T13:54:39.087Z,21440.00
2018-08-09T13:55:39.077Z,21792.00
2018-08-09T13:56:39.068Z,23104.00
2018-08-09T13:57:39.059Z,23872.00
2018-08-09T13:58:39.057Z,24320.00
2018-08-09T13:59:39.068Z,25280.00
2018-08-09T14:00:39.046Z,25696.00
2018-08-09T14:01:39.028Z,26304.00
2018-08-09T14:02:39.035Z,27552.00
2018-08-09T14:03:39.011Z,27232.00
2018-08-09T14:04:39.004Z,27712.00
2018-08-09T14:05:39.020Z,28256.00
2018-08-09T14:06:38.987Z,28320.00
2018-08-09T14:07:38.994Z,28576.00
2018-08-09T14:08:38.965Z,28576.00
2018-08-09T14:09:38.955Z,29024.00
2018-08-09T14:10:38.991Z,29472.00
2018-08-09T14:11:38.956Z,29632.00
2018-08-09T14:12:38.933Z,29536.00
2018-08-09T14:13:38.931Z,30912.00
2018-08-09T14:14:38.924Z,30272.00
2018-08-09T14:15:38.916Z,30848.00
2018-08-09T14:16:38.897Z,31360.00
2018-08-09T14:17:38.930Z,32576.00
2018-08-09T14:18:38.886Z,35936.00
2018-08-09T14:19:38.873Z,37088.00
2018-08-09T14:20:38.862Z,37280.00
2018-08-09T14:21:38.856Z,37344.00
2018-08-09T14:22:38.870Z,37536.00
2018-08-09T14:23:38.852Z,37408.00
2018-08-09T14:24:38.918Z,37984.00
2018-08-09T14:25:38.824Z,37056.00
2018-08-09T14:26:38.808Z,36864.00
2018-08-09T14:27:38.803Z,37728.00
2018-08-09T14:28:38.807Z,37792.00
2018-08-09T14:29:38.782Z,37792.00
2018-08-09T14:30:38.778Z,38144.00
2018-08-09T14:31:38.885Z,38784.00
2018-08-09T14:32:38.762Z,38720.00
2018-08-09T14:33:38.796Z,39072.00
2018-08-09T14:34:38.757Z,39520.00
2018-08-09T14:35:38.734Z,40384.00
2018-08-09T14:36:38.746Z,39840.00
2018-08-09T14:37:38.771Z,40160.00
2018-08-09T14:38:38.744Z,40960.00
2018-08-09T14:39:38.719Z,41344.00
2018-08-09T14:40:38.716Z,41760.00
2018-08-09T14:41:38.684Z,42464.00
2018-08-09T14:42:38.742Z,42208.00
2018-08-09T14:43:38.670Z,42112.00
2018-08-09T14:44:38.653Z,43040.00
2018-08-09T14:45:38.645Z,43552.00
2018-08-09T14:46:38.653Z,42656.00
2018-08-09T14:47:38.629Z,42912.00
2018-08-09T14:48:38.667Z,43520.00
2018-08-09T14:49:38.617Z,43744.00
2018-08-09T14:50:38.608Z,44512.00
2018-08-09T14:51:38.603Z,45120.00
2018-08-09T14:52:38.627Z,45600.00
2018-08-09T14:53:38.603Z,28576.00
2018-08-09T14:54:38.593Z,36576.00
2018-08-09T14:55:38.573Z,20576.00
2018-08-09T14:56:38.552Z,38976.00
2018-08-09T14:57:38.573Z,26048.00
2018-08-09T14:58:38.567Z,28064.00
2018-08-09T14:59:38.528Z,38272.00
2018-08-09T15:00:38.538Z,37728.00
2018-08-09T15:01:38.515Z,25440.00
2018-08-09T15:02:38.508Z,24512.00
2018-08-09T15:03:38.486Z,23616.00
2018-08-09T15:04:38.504Z,23616.00
2018-08-09T15:05:38.486Z,27840.00
2018-08-09T15:06:38.472Z,22176.00
2018-08-09T15:07:38.456Z,21024.00
2018-08-09T15:08:38.441Z,21248.00
2018-08-09T15:09:38.440Z,17632.00
2018-08-09T15:10:38.456Z,16044.00
2018-08-09T15:11:38.416Z,12348.00
2018-08-09T15:12:38.408Z,13076.00
2018-08-09T15:13:38.397Z,13516.00
2018-08-09T15:14:38.382Z,11772.00
2018-08-09T15:15:38.410Z,11812.00
2018-08-09T15:16:38.392Z,12280.00
2018-08-09T15:17:38.360Z,12280.00
2018-08-09T15:18:38.381Z,14844.00
2018-08-09T15:19:38.356Z,13300.00
2018-08-09T15:20:39.236Z,14364.00
2018-08-09T15:21:38.325Z,12244.00
2018-08-09T15:22:38.361Z,12492.00
2018-08-09T15:23:38.367Z,12680.00
2018-08-09T15:24:38.333Z,16928.00
2018-08-09T15:25:38.290Z,13844.00
2018-08-09T15:26:38.278Z,15216.00
2018-08-09T15:27:38.273Z,13824.00
2018-08-09T15:28:38.292Z,18528.00
2018-08-09T15:29:38.242Z,17824.00
2018-08-09T15:30:38.229Z,13832.00
2018-08-09T15:31:38.218Z,13880.00
2018-08-09T15:32:38.198Z,14540.00
2018-08-09T15:33:38.262Z,15004.00
2018-08-09T15:34:38.208Z,15192.00
2018-08-09T15:35:38.174Z,19488.00
2018-08-09T15:36:38.162Z,27136.00
2018-08-09T15:37:38.151Z,35456.00
2018-08-09T15:38:38.140Z,29248.00
2018-08-09T15:39:38.159Z,30816.00
2018-08-09T15:40:38.126Z,51104.00
2018-08-09T15:41:38.112Z,53952.00
2018-08-09T15:42:38.113Z,48960.00
2018-08-09T15:43:38.094Z,19104.00
2018-08-09T15:44:38.078Z,18016.00
2018-08-09T15:45:38.144Z,34112.00
2018-08-09T15:46:38.061Z,52704.00
2018-08-09T15:47:38.168Z,51936.00
2018-08-09T15:48:38.038Z,52832.00
2018-08-09T15:49:38.031Z,52672.00
2018-08-09T15:50:38.041Z,52416.00
2018-08-09T15:51:38.045Z,52512.00
2018-08-09T15:52:38.004Z,52224.00
2018-08-09T15:53:37.994Z,51648.00
2018-08-09T15:54:37.990Z,51104.00
2018-08-09T15:55:37.975Z,51200.00
2018-08-09T15:56:37.975Z,50784.00
2018-08-09T15:57:37.976Z,50720.00
2018-08-09T15:58:37.947Z,50624.00
2018-08-09T15:59:37.936Z,50528.00
2018-08-09T16:00:37.924Z,50240.00
2018-08-09T16:01:37.923Z,49632.00
2018-08-09T16:02:38.005Z,49344.00
2018-08-09T16:03:37.911Z,49280.00
2018-08-09T16:04:37.889Z,49088.00
2018-08-09T16:05:37.881Z,49376.00
2018-08-09T16:06:37.867Z,49088.00
2018-08-09T16:07:37.882Z,48800.00
2018-08-09T16:08:37.851Z,48704.00
2018-08-09T16:09:37.867Z,48256.00
2018-08-09T16:10:37.832Z,48416.00
2018-08-09T16:11:37.853Z,48832.00
2018-08-09T16:12:37.820Z,48768.00
2018-08-09T16:13:37.801Z,48832.00
2018-08-09T16:14:37.809Z,48768.00
2018-08-09T16:15:37.810Z,48832.00
2018-08-09T16:16:37.773Z,48544.00
2018-08-09T16:17:37.763Z,48960.00
2018-08-09T16:18:37.759Z,48832.00
2018-08-09T16:19:37.756Z,48960.00
2018-08-09T16:20:37.744Z,48704.00
2018-08-09T16:21:37.789Z,48384.00
2018-08-09T16:22:37.749Z,47936.00
2018-08-09T16:24:37.715Z,47136.00
2018-08-09T16:25:37.687Z,47040.00
2018-08-09T16:26:37.683Z,46496.00
2018-08-09T16:27:37.686Z,46368.00
2018-08-09T16:28:37.657Z,46144.00
2018-08-09T16:29:37.649Z,46112.00
2018-08-09T16:30:37.651Z,46176.00
2018-08-09T16:31:37.635Z,46048.00
2018-08-09T16:32:37.644Z,45728.00
2018-08-09T16:33:37.629Z,45536.00
2018-08-09T16:34:37.603Z,44512.00
2018-08-09T16:35:37.665Z,44608.00
2018-08-09T16:36:37.584Z,44384.00
2018-08-09T16:37:37.577Z,43936.00
2018-08-09T16:38:37.623Z,43264.00
2018-08-09T16:39:37.569Z,43104.00
2018-08-09T16:40:37.551Z,42816.00
2018-08-09T16:41:37.534Z,42976.00
2018-08-09T16:42:37.542Z,42720.00
2018-08-09T16:43:37.515Z,42848.00
2018-08-09T16:44:37.507Z,42560.00
2018-08-09T16:45:37.558Z,42080.00
2018-08-09T16:46:37.483Z,40928.00
2018-08-09T16:47:37.476Z,40416.00
2018-08-09T16:48:37.468Z,39904.00
2018-08-09T16:49:37.468Z,38656.00
2018-08-09T16:50:37.452Z,9268.00
2018-08-09T16:51:37.458Z,9816.00
2018-08-09T16:52:37.427Z,10368.00
2018-08-09T16:53:37.431Z,28768.00
2018-08-09T16:54:37.410Z,20160.00
2018-08-09T16:55:37.403Z,18688.00
2018-08-09T16:56:37.418Z,15808.00
2018-08-09T16:57:37.399Z,24800.00
2018-08-09T16:58:37.368Z,28128.00
2018-08-09T16:59:37.359Z,21312.00
2018-08-09T17:00:37.362Z,7492.00
2018-08-09T17:01:37.346Z,6760.00
2018-08-09T17:02:37.338Z,6592.00
2018-08-09T17:03:37.342Z,6436.00
2018-08-09T17:04:37.359Z,6268.00
2018-08-09T17:05:37.308Z,6448.00
2018-08-09T17:06:37.362Z,6600.00
2018-08-09T17:07:37.312Z,5196.00
2018-08-09T17:08:37.306Z,6712.00
2018-08-09T17:09:37.273Z,6604.00
2018-08-09T17:10:37.249Z,6592.00
2018-08-09T17:11:37.247Z,6528.00
2018-08-09T17:12:37.248Z,6136.00
2018-08-09T17:13:37.224Z,5908.00
2018-08-09T17:14:37.240Z,5760.00
2018-08-09T17:15:37.202Z,5732.00
2018-08-09T17:16:37.189Z,5824.00
2018-08-09T17:17:37.191Z,6056.00
2018-08-09T17:18:37.169Z,6004.00
2018-08-09T17:19:37.158Z,6000.00
2018-08-09T17:20:37.169Z,5984.00
2018-08-09T17:21:37.206Z,6648.00
2018-08-09T17:22:37.125Z,8200.00
2018-08-09T17:23:37.108Z,18304.00
2018-08-09T17:24:37.098Z,16448.00
2018-08-09T17:25:37.144Z,21504.00
2018-08-09T17:26:37.107Z,21344.00
2018-08-09T17:27:37.101Z,19552.00
2018-08-09T17:28:37.062Z,12844.00
2018-08-09T17:29:37.074Z,7712.00
2018-08-09T17:30:37.055Z,7820.00
2018-08-09T17:31:37.038Z,7852.00
2018-08-09T17:32:37.024Z,7852.00
2018-08-09T17:33:37.002Z,7912.00
2018-08-09T17:34:37.014Z,7684.00
2018-08-09T17:35:36.991Z,7744.00
2018-08-09T17:36:36.977Z,7452.00
2018-08-09T17:37:37.019Z,7496.00
2018-08-09T17:38:36.954Z,7060.00
2018-08-09T17:39:36.932Z,7156.00
2018-08-09T17:40:36.957Z,6784.00
2018-08-09T17:41:36.935Z,6692.00
2018-08-09T17:42:36.904Z,6720.00
2018-08-09T17:43:36.911Z,6152.00
2018-08-09T17:44:36.899Z,5524.00
2018-08-09T17:45:36.882Z,5748.00
2018-08-09T17:46:36.867Z,5456.00
2018-08-09T17:47:36.865Z,5088.00
2018-08-09T17:48:36.860Z,5020.00
2018-08-09T17:49:36.960Z,4680.00
2018-08-09T17:50:36.818Z,4064.00
2018-08-09T17:51:36.813Z,4120.00
2018-08-09T17:52:36.811Z,3888.00
2018-08-09T17:53:36.786Z,3656.00
2018-08-09T17:54:36.787Z,3472.00
2018-08-09T17:55:36.782Z,3248.00
2018-08-09T17:56:36.757Z,2968.00
2018-08-09T17:57:36.751Z,2676.00
2018-08-09T17:58:36.742Z,2572.00
2018-08-09T17:59:36.727Z,2424.00
2018-08-09T18:00:36.715Z,2308.00
2018-08-09T18:01:36.718Z,2228.00
2018-08-09T18:02:36.689Z,2192.00
2018-08-09T18:03:36.682Z,2116.00
2018-08-09T18:04:36.702Z,2068.00
2018-08-09T18:05:36.662Z,1976.00
2018-08-09T18:06:36.651Z,1920.00
2018-08-09T18:07:36.693Z,1812.00
2018-08-09T18:08:36.672Z,1720.00
2018-08-09T18:09:36.626Z,1516.00
2018-08-09T18:10:36.668Z,1480.00
2018-08-09T18:11:36.642Z,1376.00
2018-08-09T18:12:36.605Z,1256.00
2018-08-09T18:13:36.638Z,1148.00
2018-08-09T18:14:36.558Z,1028.00
2018-08-09T18:15:36.552Z,952.00
2018-08-09T18:16:36.545Z,860.00
2018-08-09T18:17:36.544Z,780.00
2018-08-09T18:18:36.534Z,720.00
2018-08-09T18:19:36.531Z,668.00
2018-08-09T18:20:36.512Z,596.00
2018-08-09T18:21:36.501Z,532.00
2018-08-09T18:22:36.479Z,480.00
2018-08-09T18:23:36.469Z,424.00
2018-08-09T18:24:36.473Z,388.00
2018-08-09T18:25:36.463Z,340.00
2018-08-09T18:26:36.478Z,304.00
2018-08-09T18:27:36.493Z,272.00
2018-08-09T18:28:36.414Z,244.00
2018-08-09T18:29:36.412Z,212.00
2018-08-09T18:30:36.396Z,188.00
2018-08-09T18:31:36.435Z,164.00
2018-08-09T18:32:36.375Z,148.00
2018-08-09T18:33:36.381Z,136.00
2018-08-09T18:34:36.355Z,120.00
2018-08-09T18:35:36.345Z,112.00
2018-08-09T18:36:36.359Z,100.00
2018-08-09T18:37:36.356Z,88.00
2018-08-09T18:38:36.333Z,80.00
2018-08-09T18:39:36.314Z,64.00
2018-08-09T18:40:36.291Z,56.00
2018-08-09T18:41:36.277Z,48.00
2018-08-09T18:42:36.274Z,40.00
2018-08-09T18:43:36.345Z,40.00
2018-08-09T18:44:36.242Z,32.00
2018-08-09T18:45:36.265Z,28.00
2018-08-09T18:46:36.218Z,28.00
2018-08-09T18:47:36.215Z,24.00
2018-08-09T18:48:36.206Z,20.00
2018-08-09T18:49:36.316Z,24.00
2018-08-09T18:50:36.181Z,20.00
2018-08-09T18:51:36.176Z,16.00
2018-08-09T18:52:36.181Z,16.00
2018-08-09T18:53:36.144Z,12.00
2018-08-09T18:54:36.164Z,12.00
2018-08-09T18:55:36.277Z,8.00
2018-08-09T18:56:36.111Z,8.00
2018-08-09T18:57:36.103Z,8.00
2018-08-09T18:58:36.093Z,8.00
2018-08-09T18:59:36.091Z,4.00
2018-08-09T19:00:36.090Z,4.00
2018-08-09T19:01:36.075Z,4.00
2018-08-09T19:02:36.056Z,0.00
2018-08-09T19:03:36.043Z,4.00
2018-08-09T19:04:36.035Z,4.00
2018-08-09T19:05:36.016Z,0.00
2018-08-09T19:06:36.024Z,0.00
2018-08-09T19:07:36.009Z,0.00
2018-08-09T19:08:36.008Z,0.00
2018-08-09T19:09:35.977Z,0.00
2018-08-09T19:10:35.968Z,0.00
2018-08-09T19:11:35.960Z,0.00
2018-08-09T19:12:35.958Z,0.00
2018-08-09T19:13:35.948Z,0.00
2018-08-09T19:14:35.936Z,0.00
2018-08-09T19:15:35.949Z,0.00
2018-08-09T19:16:35.927Z,0.00
2018-08-09T19:17:35.910Z,0.00
2018-08-09T19:18:35.900Z,0.00
2018-08-09T19:19:35.953Z,0.00
2018-08-09T19:20:35.882Z,0.00
2018-08-09T19:21:35.863Z,0.00
2018-08-09T19:22:35.841Z,0.00
2018-08-09T19:23:35.856Z,0.00
2018-08-09T19:24:35.842Z,0.00
2018-08-09T19:25:35.821Z,0.00
2018-08-09T19:26:35.795Z,0.00
2018-08-09T19:27:35.803Z,0.00
2018-08-09T19:28:35.781Z,0.00
2018-08-09T19:29:35.803Z,0.00
2018-08-09T19:30:35.771Z,0.00
2018-08-09T19:31:35.749Z,0.00
2018-08-09T19:32:35.750Z,0.00
2018-08-09T19:33:35.721Z,0.00
2018-08-09T19:34:35.711Z,0.00
2018-08-09T19:35:35.701Z,0.00
2018-08-09T19:36:35.708Z,0.00
2018-08-09T19:37:35.702Z,20.00
2018-08-09T19:38:35.681Z,24.00
2018-08-09T19:39:35.662Z,0.00
2018-08-09T19:40:35.641Z,0.00
2018-08-09T19:41:35.633Z,0.00
2018-08-09T19:42:35.656Z,0.00
2018-08-09T19:43:35.633Z,0.00
2018-08-09T19:44:35.610Z,0.00
2018-08-09T19:45:35.591Z,0.00
2018-08-09T19:46:35.596Z,24.00
2018-08-09T19:47:35.592Z,24.00
2018-08-09T19:48:35.612Z,0.00
2018-08-09T19:49:35.565Z,0.00
2018-08-09T19:50:35.597Z,0.00
2018-08-09T19:51:35.667Z,0.00
2018-08-09T19:52:35.809Z,0.00
2018-08-09T19:53:36.168Z,0.00
2018-08-09T19:54:36.581Z,0.00
2018-08-09T19:55:37.143Z,0.00
